Time,TemperatureF,DewpointF,PressureIn,WindDirection,WindDirectionDegrees,WindSpeedMPH,WindSpeedGustMPH,Humidity,HourlyPrecipIn,Conditions,Clouds,dailyrainin,SoftwareType,DateUTC
2013-06-23 00:01:00,79.0,-99.9,30.13,North,-999,-999.0,-999.0,-999,-99.99,,,-99.99,,2013-06-23 04:01:00,
2013-06-23 00:11:00,-999.0,-99.9,30.13,ENE,59,7.0,11.0,-999,-99.99,,,-99.99,,2013-06-23 04:11:00,
2013-06-23 00:21:00,-999.0,-99.9,30.13,ENE,64,6.0,12.0,-999,-99.99,,,-99.99,,2013-06-23 04:21:00,
2013-06-23 00:31:00,-999.0,-99.9,30.13,ENE,64,6.0,10.0,-999,-99.99,,,-99.99,,2013-06-23 04:31:00,
2013-06-23 00:42:00,-999.0,-99.9,30.13,ENE,70,5.0,11.0,-999,-99.99,,,-99.99,,2013-06-23 04:42:00,
2013-06-23 00:52:00,-999.0,-99.9,30.13,NE,53,7.0,12.0,-999,-99.99,,,-99.99,,2013-06-23 04:52:00,
2013-06-23 01:22:00,-999.0,-99.9,30.13,East,84,13.0,16.0,-999,-99.99,,,-99.99,,2013-06-23 05:22:00,
2013-06-23 01:32:00,80.0,-99.9,30.13,North,-999,-999.0,-999.0,-999,-99.99,,,-99.99,,2013-06-23 05:32:00,
2013-06-23 01:42:00,-999.0,-99.9,30.13,East,87,11.0,16.0,-999,-99.99,,,-99.99,,2013-06-23 05:42:00,
2013-06-23 01:52:00,80.0,-99.9,30.13,North,-999,-999.0,-999.0,-999,-99.99,,,-99.99,,2013-06-23 05:52:00,
2013-06-23 02:02:00,-999.0,-99.9,30.12,East,96,10.0,14.0,-999,-99.99,,,-99.99,,2013-06-23 06:02:00,
2013-06-23 02:33:00,-999.0,-99.9,30.11,ESE,102,7.0,14.0,-999,-99.99,,,-99.99,,2013-06-23 06:33:00,
2013-06-23 02:43:00,-999.0,-99.9,30.11,ESE,113,7.0,13.0,-999,-99.99,,,-99.99,,2013-06-23 06:43:00,
2013-06-23 02:52:00,-999.0,-99.9,30.11,ESE,112,9.0,13.0,-999,-99.99,,,-99.99,,2013-06-23 06:52:00,
2013-06-23 03:02:00,80.0,-99.9,30.11,North,-999,-999.0,-999.0,-999,-99.99,,,-99.99,,2013-06-23 07:02:00,
2013-06-23 03:12:00,-999.0,-99.9,30.11,ESE,120,11.0,16.0,-999,-99.99,,,-99.99,,2013-06-23 07:12:00,
2013-06-23 03:34:00,-999.0,-99.9,30.11,SE,130,12.0,16.0,-999,-99.99,,,-99.99,,2013-06-23 07:34:00,
2013-06-23 03:43:00,-999.0,-99.9,30.10,SE,129,12.0,17.0,-999,-99.99,,,-99.99,,2013-06-23 07:43:00,
2013-06-23 03:53:00,79.0,-99.9,30.10,North,-999,-999.0,-999.0,-999,-99.99,,,-99.99,,2013-06-23 07:53:00,
2013-06-23 04:02:00,-999.0,-99.9,30.10,SE,128,13.0,17.0,-999,-99.99,,,-99.99,,2013-06-23 08:02:00,
2013-06-23 04:22:00,-999.0,-99.9,30.10,ESE,122,11.0,15.0,-999,-99.99,,,-99.99,,2013-06-23 08:22:00,
2013-06-23 04:34:00,-999.0,-99.9,30.10,ESE,122,10.0,15.0,-999,-99.99,,,-99.99,,2013-06-23 08:34:00,
2013-06-23 04:43:00,79.0,-99.9,30.10,North,-999,-999.0,-999.0,-999,-99.99,,,-99.99,,2013-06-23 08:43:00,
2013-06-23 04:53:00,79.0,-99.9,30.09,North,-999,-999.0,-999.0,-999,-99.99,,,-99.99,,2013-06-23 08:53:00,
2013-06-23 05:12:00,-999.0,-99.9,30.10,SE,131,12.0,17.0,-999,-99.99,,,-99.99,,2013-06-23 09:12:00,
2013-06-23 05:43:00,-999.0,-99.9,30.10,SE,135,11.0,15.0,-999,-99.99,,,-99.99,,2013-06-23 09:43:00,
2013-06-23 05:54:00,79.0,-99.9,30.10,North,-999,-999.0,-999.0,-999,-99.99,,,-99.99,,2013-06-23 09:54:00,
2013-06-23 06:02:00,-999.0,-99.9,30.10,SE,137,11.0,13.0,-999,-99.99,,,-99.99,,2013-06-23 10:02:00,
2013-06-23 06:12:00,-999.0,-99.9,30.10,SE,132,9.0,11.0,-999,-99.99,,,-99.99,,2013-06-23 10:12:00,
2013-06-23 06:22:00,-999.0,-99.9,30.10,SE,130,9.0,11.0,-999,-99.99,,,-99.99,,2013-06-23 10:22:00,
2013-06-23 06:43:00,-999.0,-99.9,30.10,SE,133,9.0,12.0,-999,-99.99,,,-99.99,,2013-06-23 10:43:00,
2013-06-23 06:53:00,-999.0,-99.9,30.10,SE,131,8.0,10.0,-999,-99.99,,,-99.99,,2013-06-23 10:53:00,
2013-06-23 07:02:00,-999.0,-99.9,30.10,SE,128,8.0,10.0,-999,-99.99,,,-99.99,,2013-06-23 11:02:00,
2013-06-23 07:11:00,-999.0,-99.9,30.10,SE,129,7.0,10.0,-999,-99.99,,,-99.99,,2013-06-23 11:11:00,
2013-06-23 07:22:00,-999.0,-99.9,30.11,SE,129,9.0,11.0,-999,-99.99,,,-99.99,,2013-06-23 11:22:00,
2013-06-23 07:33:00,79.0,-99.9,30.11,North,-999,-999.0,-999.0,-999,-99.99,,,-99.99,,2013-06-23 11:33:00,
2013-06-23 07:43:00,79.0,-99.9,30.11,North,-999,-999.0,-999.0,-999,-99.99,,,-99.99,,2013-06-23 11:43:00,
2013-06-23 07:53:00,-999.0,-99.9,30.12,SE,127,10.0,14.0,-999,-99.99,,,-99.99,,2013-06-23 11:53:00,
2013-06-23 08:22:00,-999.0,-99.9,30.13,SE,124,8.0,12.0,-999,-99.99,,,-99.99,,2013-06-23 12:22:00,
2013-06-23 08:34:00,-999.0,-99.9,30.13,ESE,120,7.0,11.0,-999,-99.99,,,-99.99,,2013-06-23 12:34:00,
2013-06-23 08:43:00,80.0,-99.9,30.13,North,-999,-999.0,-999.0,-999,-99.99,,,-99.99,,2013-06-23 12:43:00,
2013-06-23 08:53:00,-999.0,-99.9,30.14,ESE,116,6.0,9.0,-999,-99.99,,,-99.99,,2013-06-23 12:53:00,
2013-06-23 09:02:00,80.0,-99.9,30.14,North,-999,-999.0,-999.0,-999,-99.99,,,-99.99,,2013-06-23 13:02:00,
2013-06-23 09:12:00,-999.0,-99.9,30.14,ESE,120,6.0,9.0,-999,-99.99,,,-99.99,,2013-06-23 13:12:00,
2013-06-23 09:43:00,80.0,-99.9,30.14,North,-999,-999.0,-999.0,-999,-99.99,,,-99.99,,2013-06-23 13:43:00,
2013-06-23 09:54:00,-999.0,-99.9,30.14,SE,126,7.0,12.0,-999,-99.99,,,-99.99,,2013-06-23 13:54:00,
2013-06-23 10:05:00,-999.0,-99.9,30.14,ESE,119,6.0,10.0,-999,-99.99,,,-99.99,,2013-06-23 14:05:00,
2013-06-23 10:22:00,-999.0,-99.9,30.14,SE,127,8.0,11.0,-999,-99.99,,,-99.99,,2013-06-23 14:22:00,
2013-06-23 10:34:00,-999.0,-99.9,30.15,SE,140,8.0,10.0,-999,-99.99,,,-99.99,,2013-06-23 14:34:00,
2013-06-23 10:44:00,-999.0,-99.9,30.15,SE,130,7.0,9.0,-999,-99.99,,,-99.99,,2013-06-23 14:44:00,
2013-06-23 10:52:00,-999.0,-99.9,30.15,SE,136,7.0,9.0,-999,-99.99,,,-99.99,,2013-06-23 14:52:00,
2013-06-23 11:05:00,-999.0,-99.9,30.15,SE,125,5.0,8.0,-999,-99.99,,,-99.99,,2013-06-23 15:05:00,
2013-06-23 11:35:00,-999.0,-99.9,30.16,ESE,113,4.0,7.0,-999,-99.99,,,-99.99,,2013-06-23 15:35:00,
2013-06-23 11:43:00,84.0,-99.9,30.16,North,-999,-999.0,-999.0,-999,-99.99,,,-99.99,,2013-06-23 15:43:00,
2013-06-23 11:53:00,-999.0,-99.9,30.16,ESE,118,5.0,7.0,-999,-99.99,,,-99.99,,2013-06-23 15:53:00,
2013-06-23 12:06:00,-999.0,-99.9,30.16,East,100,4.0,7.0,-999,-99.99,,,-99.99,,2013-06-23 16:06:00,
2013-06-23 12:22:00,-999.0,-99.9,30.16,East,96,3.0,6.0,-999,-99.99,,,-99.99,,2013-06-23 16:22:00,
2013-06-23 12:43:00,-999.0,-99.9,30.16,East,89,3.0,5.0,-999,-99.99,,,-99.99,,2013-06-23 16:43:00,
2013-06-23 12:53:00,86.0,-99.9,30.16,North,-999,-999.0,-999.0,-999,-99.99,,,-99.99,,2013-06-23 16:53:00,
2013-06-23 13:06:00,86.0,-99.9,30.16,North,-999,-999.0,-999.0,-999,-99.99,,,-99.99,,2013-06-23 17:06:00,
2013-06-23 13:34:00,-999.0,-99.9,30.16,NE,44,4.0,7.0,-999,-99.99,,,-99.99,,2013-06-23 17:34:00,
2013-06-23 13:43:00,86.0,-99.9,30.16,North,-999,-999.0,-999.0,-999,-99.99,,,-99.99,,2013-06-23 17:43:00,
2013-06-23 13:53:00,86.0,-99.9,30.15,North,-999,-999.0,-999.0,-999,-99.99,,,-99.99,,2013-06-23 17:53:00,
2013-06-23 14:01:00,-999.0,-99.9,30.15,NE,34,3.0,7.0,-999,-99.99,,,-99.99,,2013-06-23 18:01:00,
2013-06-23 14:12:00,-999.0,-99.9,30.14,NE,47,2.0,6.0,-999,-99.99,,,-99.99,,2013-06-23 18:12:00,
2013-06-23 14:22:00,-999.0,-99.9,30.14,NE,47,2.0,6.0,-999,-99.99,,,-99.99,,2013-06-23 18:22:00,
2013-06-23 14:34:00,-999.0,-99.9,30.13,NNE,22,4.0,6.0,-999,-99.99,,,-99.99,,2013-06-23 18:34:00,
2013-06-23 14:43:00,-999.0,-99.9,30.13,NE,53,3.0,6.0,-999,-99.99,,,-99.99,,2013-06-23 18:43:00,
2013-06-23 14:53:00,88.0,-99.9,30.13,North,-999,-999.0,-999.0,-999,-99.99,,,-99.99,,2013-06-23 18:53:00,
2013-06-23 15:01:00,-999.0,-99.9,30.12,NNE,30,3.0,5.0,-999,-99.99,,,-99.99,,2013-06-23 19:01:00,
2013-06-23 15:11:00,-999.0,-99.9,30.11,SE,136,2.0,5.0,-999,-99.99,,,-99.99,,2013-06-23 19:11:00,
2013-06-23 15:22:00,-999.0,-99.9,30.11,ENE,59,2.0,4.0,-999,-99.99,,,-99.99,,2013-06-23 19:22:00,
2013-06-23 15:32:00,-999.0,-99.9,30.11,NE,47,4.0,6.0,-999,-99.99,,,-99.99,,2013-06-23 19:32:00,
2013-06-23 15:43:00,89.0,-99.9,30.10,North,-999,-999.0,-999.0,-999,-99.99,,,-99.99,,2013-06-23 19:43:00,
2013-06-23 15:53:00,-999.0,-99.9,30.10,ENE,74,3.0,7.0,-999,-99.99,,,-99.99,,2013-06-23 19:53:00,
2013-06-23 16:02:00,90.0,-99.9,30.10,North,-999,-999.0,-999.0,-999,-99.99,,,-99.99,,2013-06-23 20:02:00,
2013-06-23 16:12:00,-999.0,-99.9,30.09,NNE,32,4.0,6.0,-999,-99.99,,,-99.99,,2013-06-23 20:12:00,
2013-06-23 16:24:00,-999.0,-99.9,30.09,NNE,21,4.0,5.0,-999,-99.99,,,-99.99,,2013-06-23 20:24:00,
2013-06-23 16:34:00,-999.0,-99.9,30.09,NNE,21,3.0,6.0,-999,-99.99,,,-99.99,,2013-06-23 20:34:00,
2013-06-23 16:42:00,-999.0,-99.9,30.10,East,83,4.0,5.0,-999,-99.99,,,-99.99,,2013-06-23 20:42:00,
2013-06-23 16:53:00,-999.0,-99.9,30.10,NE,47,3.0,6.0,-999,-99.99,,,-99.99,,2013-06-23 20:53:00,
2013-06-23 17:01:00,84.0,-99.9,30.10,North,-999,-999.0,-999.0,-999,-99.99,,,-99.99,,2013-06-23 21:01:00,
2013-06-23 17:34:00,-999.0,-99.9,30.13,ESE,121,23.0,32.0,-999,-99.99,,,-99.99,,2013-06-23 21:34:00,
2013-06-23 17:44:00,-999.0,-99.9,30.13,SE,129,20.0,24.0,-999,-99.99,,,-99.99,,2013-06-23 21:44:00,
2013-06-23 17:52:00,-999.0,-99.9,30.13,SSE,159,20.0,26.0,-999,-99.99,,,-99.99,,2013-06-23 21:52:00,
2013-06-23 18:01:00,-999.0,-99.9,30.13,South,191,17.0,25.0,-999,-99.99,,,-99.99,,2013-06-23 22:01:00,
2013-06-23 18:12:00,-999.0,-99.9,30.13,South,188,14.0,18.0,-999,-99.99,,,-99.99,,2013-06-23 22:12:00,
2013-06-23 18:22:00,-999.0,-99.9,30.12,SW,232,6.0,14.0,-999,-99.99,,,-99.99,,2013-06-23 22:22:00,
2013-06-23 18:33:00,-999.0,-99.9,30.12,SSW,198,7.0,8.0,-999,-99.99,,,-99.99,,2013-06-23 22:33:00,
2013-06-23 18:43:00,-999.0,-99.9,30.12,West,261,5.0,8.0,-999,-99.99,,,-99.99,,2013-06-23 22:43:00,
2013-06-23 18:53:00,-999.0,-99.9,30.12,NNW,347,1.0,3.0,-999,-99.99,,,-99.99,,2013-06-23 22:53:00,
2013-06-23 19:01:00,-999.0,-99.9,30.12,North,5,1.0,3.0,-999,-99.99,,,-99.99,,2013-06-23 23:01:00,
2013-06-23 19:33:00,79.0,-99.9,30.11,North,-999,-999.0,-999.0,-999,-99.99,,,-99.99,,2013-06-23 23:33:00,
2013-06-23 19:44:00,79.0,-99.9,30.11,North,-999,-999.0,-999.0,-999,-99.99,,,-99.99,,2013-06-23 23:44:00,
2013-06-23 19:52:00,-999.0,-99.9,30.12,SE,124,6.0,8.0,-999,-99.99,,,-99.99,,2013-06-23 23:52:00,
2013-06-23 20:01:00,-999.0,-99.9,30.12,East,97,4.0,5.0,-999,-99.99,,,-99.99,,2013-06-24 00:01:00,
2013-06-23 20:33:00,-999.0,-99.9,30.12,East,92,8.0,11.0,-999,-99.99,,,-99.99,,2013-06-24 00:33:00,
2013-06-23 20:43:00,80.0,-99.9,30.12,North,-999,-999.0,-999.0,-999,-99.99,,,-99.99,,2013-06-24 00:43:00,
2013-06-23 20:52:00,-999.0,-99.9,30.13,East,86,8.0,10.0,-999,-99.99,,,-99.99,,2013-06-24 00:52:00,
2013-06-23 21:02:00,80.0,-99.9,30.13,North,-999,-999.0,-999.0,-999,-99.99,,,-99.99,,2013-06-24 01:02:00,
2013-06-23 21:22:00,-999.0,-99.9,30.14,East,90,7.0,10.0,-999,-99.99,,,-99.99,,2013-06-24 01:22:00,
2013-06-23 21:32:00,81.0,-99.9,30.14,North,-999,-999.0,-999.0,-999,-99.99,,,-99.99,,2013-06-24 01:32:00,
2013-06-23 21:42:00,80.0,-99.9,30.14,North,-999,-999.0,-999.0,-999,-99.99,,,-99.99,,2013-06-24 01:42:00,
2013-06-23 21:53:00,-999.0,-99.9,30.15,ESE,114,5.0,8.0,-999,-99.99,,,-99.99,,2013-06-24 01:53:00,
2013-06-23 22:22:00,-999.0,-99.9,30.15,ESE,108,6.0,11.0,-999,-99.99,,,-99.99,,2013-06-24 02:22:00,
2013-06-23 22:33:00,-999.0,-99.9,30.15,East,100,6.0,9.0,-999,-99.99,,,-99.99,,2013-06-24 02:33:00,
2013-06-23 22:42:00,-999.0,-99.9,30.16,ESE,108,7.0,10.0,-999,-99.99,,,-99.99,,2013-06-24 02:42:00,
2013-06-23 22:53:00,81.0,-99.9,30.16,North,-999,-999.0,-999.0,-999,-99.99,,,-99.99,,2013-06-24 02:53:00,
2013-06-23 23:01:00,-999.0,-99.9,30.16,ESE,116,8.0,11.0,-999,-99.99,,,-99.99,,2013-06-24 03:01:00,
2013-06-23 23:11:00,-999.0,-99.9,30.16,ESE,110,6.0,11.0,-999,-99.99,,,-99.99,,2013-06-24 03:11:00,
2013-06-23 23:22:00,-999.0,-99.9,30.16,ESE,120,8.0,12.0,-999,-99.99,,,-99.99,,2013-06-24 03:22:00,
2013-06-23 23:43:00,-999.0,-99.9,30.16,SE,125,10.0,14.0,-999,-99.99,,,-99.99,,2013-06-24 03:43:00,
2013-06-23 23:53:00,80.0,-99.9,30.17,North,-999,-999.0,-999.0,-999,-99.99,,,-99.99,,2013-06-24 03:53:00,